Terminal Aerodrome Forecast
Issued by NWS

Home | Current Version | Previous Version | Text Only | Print | Product List | Glossary On
Versions: 1 2 3 4 5 6 7 8 9 10 11 12 13 14
767
FTUS45 KABQ 212337
TAFLVS
TAF
KLVS 212337Z 2200/2224 31018G28KT P6SM FEW035 BKN100
     FM220200 32012G20KT P6SM BKN100
     FM220900 33012KT P6SM SKC
     FM222000 26010G16KT P6SM FEW090 SCT150=

USA.gov is the U.S. government's official web portal to all federal, state and local government web resources and services.